sensor_id;sensor_type;location;lat;lon;timestamp;temperature;humidity
52397;DHT22;38322;53.108;6.308;2023-02-28T06:01:24;2.20;99.90
52397;DHT22;38322;53.108;6.308;2023-02-28T06:03:50;2.20;99.90
52397;DHT22;38322;53.108;6.308;2023-02-28T06:06:16;2.20;99.90
52397;DHT22;38322;53.108;6.308;2023-02-28T06:08:42;2.20;99.90
52397;DHT22;38322;53.108;6.308;2023-02-28T06:11:10;2.20;99.90
52397;DHT22;38322;53.108;6.308;2023-02-28T06:13:35;2.10;99.90
52397;DHT22;38322;53.108;6.308;2023-02-28T06:16:02;2.10;99.90
52397;DHT22;38322;53.108;6.308;2023-02-28T06:18:27;2.10;99.90
52397;DHT22;38322;53.108;6.308;2023-02-28T06:20:54;2.10;99.90
52397;DHT22;38322;53.108;6.308;2023-02-28T06:23:21;2.00;99.90
52397;DHT22;38322;53.108;6.308;2023-02-28T06:25:47;2.00;99.90
52397;DHT22;38322;53.108;6.308;2023-02-28T06:28:13;2.00;99.90
52397;DHT22;38322;53.108;6.308;2023-02-28T06:30:39;2.00;99.90
52397;DHT22;38322;53.108;6.308;2023-02-28T06:33:05;2.00;99.90
52397;DHT22;38322;53.108;6.308;2023-02-28T06:35:31;2.00;99.90
52397;DHT22;38322;53.108;6.308;2023-02-28T06:37:57;2.00;99.90
52397;DHT22;38322;53.108;6.308;2023-02-28T06:40:22;2.00;99.90
52397;DHT22;38322;53.108;6.308;2023-02-28T06:42:48;2.00;99.90
52397;DHT22;38322;53.108;6.308;2023-02-28T06:45:14;1.90;99.90
52397;DHT22;38322;53.108;6.308;2023-02-28T06:47:41;1.90;99.90
52397;DHT22;38322;53.108;6.308;2023-02-28T06:50:10;1.90;99.90
52397;DHT22;38322;53.108;6.308;2023-02-28T06:52:36;1.80;99.90
52397;DHT22;38322;53.108;6.308;2023-02-28T06:55:04;1.90;99.90
52397;DHT22;38322;53.108;6.308;2023-02-28T06:57:32;1.80;99.90
52397;DHT22;38322;53.108;6.308;2023-02-28T07:00:04;1.80;99.90
52397;DHT22;38322;53.108;6.308;2023-02-28T07:02:30;1.80;99.90
52397;DHT22;38322;53.108;6.308;2023-02-28T07:04:57;1.80;99.90
52397;DHT22;38322;53.108;6.308;2023-02-28T07:07:23;1.80;99.90
52397;DHT22;38322;53.108;6.308;2023-02-28T07:09:48;1.70;99.90
52397;DHT22;38322;53.108;6.308;2023-02-28T07:12:14;1.70;99.90
52397;DHT22;38322;53.108;6.308;2023-02-28T07:14:40;1.70;99.90
52397;DHT22;38322;53.108;6.308;2023-02-28T07:17:09;1.70;99.90
52397;DHT22;38322;53.108;6.308;2023-02-28T07:19:36;1.70;99.90
52397;DHT22;38322;53.108;6.308;2023-02-28T07:22:02;1.70;99.90
52397;DHT22;38322;53.108;6.308;2023-02-28T07:24:28;1.70;99.90
52397;DHT22;38322;53.108;6.308;2023-02-28T07:26:55;1.70;99.90
52397;DHT22;38322;53.108;6.308;2023-02-28T07:29:21;1.80;99.90
52397;DHT22;38322;53.108;6.308;2023-02-28T07:32:02;1.80;99.90
52397;DHT22;38322;53.108;6.308;2023-02-28T07:34:28;1.80;99.90
52397;DHT22;38322;53.108;6.308;2023-02-28T07:36:54;1.80;99.90
52397;DHT22;38322;53.108;6.308;2023-02-28T07:39:21;1.90;99.90
52397;DHT22;38322;53.108;6.308;2023-02-28T07:41:47;1.90;99.90
52397;DHT22;38322;53.108;6.308;2023-02-28T07:44:13;2.00;99.90
52397;DHT22;38322;53.108;6.308;2023-02-28T07:46:39;2.00;99.90
52397;DHT22;38322;53.108;6.308;2023-02-28T07:49:05;2.00;99.90
52397;DHT22;38322;53.108;6.308;2023-02-28T07:51:31;2.00;99.90
52397;DHT22;38322;53.108;6.308;2023-02-28T07:53:57;2.10;99.90
52397;DHT22;38322;53.108;6.308;2023-02-28T07:56:23;2.10;99.90
52397;DHT22;38322;53.108;6.308;2023-02-28T07:58:49;2.10;99.90
52397;DHT22;38322;53.108;6.308;2023-02-28T08:01:15;2.10;99.90
52397;DHT22;38322;53.108;6.308;2023-02-28T08:03:41;2.10;99.90
52397;DHT22;38322;53.108;6.308;2023-02-28T08:06:09;2.20;99.90
52397;DHT22;38322;53.108;6.308;2023-02-28T08:08:40;2.20;99.90
52397;DHT22;38322;53.108;6.308;2023-02-28T08:11:06;2.20;99.90
52397;DHT22;38322;53.108;6.308;2023-02-28T08:13:32;2.30;99.90
52397;DHT22;38322;53.108;6.308;2023-02-28T08:15:58;2.30;99.90
52397;DHT22;38322;53.108;6.308;2023-02-28T08:18:26;2.30;99.90
52397;DHT22;38322;53.108;6.308;2023-02-28T08:20:52;2.30;99.90
52397;DHT22;38322;53.108;6.308;2023-02-28T08:23:18;2.40;99.90
52397;DHT22;38322;53.108;6.308;2023-02-28T08:25:44;2.40;99.90
52397;DHT22;38322;53.108;6.308;2023-02-28T08:28:09;2.40;99.90
52397;DHT22;38322;53.108;6.308;2023-02-28T08:30:35;2.40;99.90
52397;DHT22;38322;53.108;6.308;2023-02-28T08:33:02;2.50;99.90
52397;DHT22;38322;53.108;6.308;2023-02-28T08:35:28;2.50;99.90
52397;DHT22;38322;53.108;6.308;2023-02-28T08:37:53;2.60;99.90
52397;DHT22;38322;53.108;6.308;2023-02-28T08:40:19;2.70;99.90
52397;DHT22;38322;53.108;6.308;2023-02-28T08:42:45;2.70;99.90
52397;DHT22;38322;53.108;6.308;2023-02-28T08:45:13;2.70;99.90
52397;DHT22;38322;53.108;6.308;2023-02-28T08:47:39;2.80;99.90
52397;DHT22;38322;53.108;6.308;2023-02-28T08:50:05;2.90;99.90
52397;DHT22;38322;53.108;6.308;2023-02-28T08:52:32;2.90;99.90
52397;DHT22;38322;53.108;6.308;2023-02-28T08:54:58;3.00;99.90
52397;DHT22;38322;53.108;6.308;2023-02-28T08:57:24;3.10;99.90
52397;DHT22;38322;53.108;6.308;2023-02-28T08:59:52;3.20;99.90
52397;DHT22;38322;53.108;6.308;2023-02-28T09:02:18;3.20;99.90
52397;DHT22;38322;53.108;6.308;2023-02-28T09:04:43;3.40;99.90
52397;DHT22;38322;53.108;6.308;2023-02-28T09:07:11;3.40;99.90
52397;DHT22;38322;53.108;6.308;2023-02-28T09:09:37;3.50;99.90
52397;DHT22;38322;53.108;6.308;2023-02-28T09:12:24;3.60;99.90
52397;DHT22;38322;53.108;6.308;2023-02-28T09:14:50;3.60;99.90
52397;DHT22;38322;53.108;6.308;2023-02-28T09:17:16;3.70;99.90
52397;DHT22;38322;53.108;6.308;2023-02-28T09:19:42;3.80;99.90
52397;DHT22;38322;53.108;6.308;2023-02-28T09:22:09;3.80;99.90
52397;DHT22;38322;53.108;6.308;2023-02-28T09:24:37;3.80;99.90
52397;DHT22;38322;53.108;6.308;2023-02-28T09:27:03;3.70;99.90
52397;DHT22;38322;53.108;6.308;2023-02-28T09:29:30;3.70;99.90
52397;DHT22;38322;53.108;6.308;2023-02-28T09:31:55;3.60;99.90
52397;DHT22;38322;53.108;6.308;2023-02-28T09:34:24;3.60;99.90
52397;DHT22;38322;53.108;6.308;2023-02-28T09:36:50;3.60;99.90
52397;DHT22;38322;53.108;6.308;2023-02-28T09:39:21;3.60;99.90
52397;DHT22;38322;53.108;6.308;2023-02-28T09:41:51;3.80;99.90
52397;DHT22;38322;53.108;6.308;2023-02-28T09:44:37;3.90;99.90
52397;DHT22;38322;53.108;6.308;2023-02-28T09:47:25;3.90;99.90
52397;DHT22;38322;53.108;6.308;2023-02-28T09:49:52;4.00;99.90
52397;DHT22;38322;53.108;6.308;2023-02-28T09:52:23;4.20;99.90
52397;DHT22;38322;53.108;6.308;2023-02-28T09:54:50;4.50;99.90
52397;DHT22;38322;53.108;6.308;2023-02-28T09:57:32;4.70;99.90
52397;DHT22;38322;53.108;6.308;2023-02-28T10:05:15;5.00;99.90
52397;DHT22;38322;53.108;6.308;2023-02-28T10:10:29;5.10;99.90
52397;DHT22;38322;53.108;6.308;2023-02-28T10:13:00;5.20;99.90
52397;DHT22;38322;53.108;6.308;2023-02-28T10:15:30;5.10;99.90
52397;DHT22;38322;53.108;6.308;2023-02-28T10:18:00;5.00;99.90
52397;DHT22;38322;53.108;6.308;2023-02-28T10:20:28;5.00;99.90
52397;DHT22;38322;53.108;6.308;2023-02-28T10:25:29;5.10;99.90
52397;DHT22;38322;53.108;6.308;2023-02-28T10:28:08;5.20;99.90
52397;DHT22;38322;53.108;6.308;2023-02-28T10:30:37;5.30;99.90
52397;DHT22;38322;53.108;6.308;2023-02-28T10:33:04;5.40;99.90
52397;DHT22;38322;53.108;6.308;2023-02-28T10:35:29;5.50;99.90
52397;DHT22;38322;53.108;6.308;2023-02-28T10:37:57;5.50;99.90
52397;DHT22;38322;53.108;6.308;2023-02-28T10:42:57;5.70;99.90
52397;DHT22;38322;53.108;6.308;2023-02-28T10:45:24;5.80;99.90
52397;DHT22;38322;53.108;6.308;2023-02-28T10:50:30;5.90;99.90
52397;DHT22;38322;53.108;6.308;2023-02-28T10:53:16;5.90;99.90
52397;DHT22;38322;53.108;6.308;2023-02-28T10:55:43;5.90;99.90
52397;DHT22;38322;53.108;6.308;2023-02-28T10:58:30;5.90;99.90
52397;DHT22;38322;53.108;6.308;2023-02-28T11:00:56;5.90;99.90
52397;DHT22;38322;53.108;6.308;2023-02-28T11:03:29;5.80;99.90
52397;DHT22;38322;53.108;6.308;2023-02-28T11:05:55;5.90;99.90
52397;DHT22;38322;53.108;6.308;2023-02-28T11:08:21;5.90;99.90
52397;DHT22;38322;53.108;6.308;2023-02-28T11:10:55;6.00;99.90
52397;DHT22;38322;53.108;6.308;2023-02-28T11:13:27;6.10;99.90
52397;DHT22;38322;53.108;6.308;2023-02-28T11:15:56;6.20;99.90
52397;DHT22;38322;53.108;6.308;2023-02-28T11:18:50;6.30;99.90
52397;DHT22;38322;53.108;6.308;2023-02-28T11:21:22;6.40;99.90
52397;DHT22;38322;53.108;6.308;2023-02-28T11:23:51;6.30;99.90
52397;DHT22;38322;53.108;6.308;2023-02-28T11:26:37;6.20;99.90
52397;DHT22;38322;53.108;6.308;2023-02-28T11:29:20;6.30;99.90
52397;DHT22;38322;53.108;6.308;2023-02-28T11:32:16;6.30;99.90
52397;DHT22;38322;53.108;6.308;2023-02-28T11:34:45;6.40;99.90
52397;DHT22;38322;53.108;6.308;2023-02-28T11:37:15;6.30;99.90
52397;DHT22;38322;53.108;6.308;2023-02-28T11:39:42;6.30;99.90
52397;DHT22;38322;53.108;6.308;2023-02-28T11:44:53;6.50;99.90
52397;DHT22;38322;53.108;6.308;2023-02-28T11:47:26;6.40;99.90
52397;DHT22;38322;53.108;6.308;2023-02-28T11:55:13;6.50;99.90
52397;DHT22;38322;53.108;6.308;2023-02-28T12:01:03;6.50;99.90
52397;DHT22;38322;53.108;6.308;2023-02-28T12:03:45;6.60;99.90
52397;DHT22;38322;53.108;6.308;2023-02-28T12:06:21;6.60;99.90
52397;DHT22;38322;53.108;6.308;2023-02-28T12:09:04;6.70;99.90
52397;DHT22;38322;53.108;6.308;2023-02-28T12:11:55;6.80;99.90
52397;DHT22;38322;53.108;6.308;2023-02-28T12:20:25;6.80;99.90
52397;DHT22;38322;53.108;6.308;2023-02-28T12:28:17;6.70;99.90
52397;DHT22;38322;53.108;6.308;2023-02-28T12:30:57;6.70;99.90
52397;DHT22;38322;53.108;6.308;2023-02-28T12:33:28;6.60;99.90
52397;DHT22;38322;53.108;6.308;2023-02-28T12:36:00;6.60;99.90
52397;DHT22;38322;53.108;6.308;2023-02-28T12:38:34;6.60;99.90
52397;DHT22;38322;53.108;6.308;2023-02-28T12:43:40;6.60;99.90
52397;DHT22;38322;53.108;6.308;2023-02-28T12:46:12;6.70;99.90
52397;DHT22;38322;53.108;6.308;2023-02-28T12:48:44;6.80;99.90
52397;DHT22;38322;53.108;6.308;2023-02-28T12:51:12;6.90;99.90
52397;DHT22;38322;53.108;6.308;2023-02-28T12:59:23;7.10;99.90
52397;DHT22;38322;53.108;6.308;2023-02-28T13:04:38;7.20;99.90
52397;DHT22;38322;53.108;6.308;2023-02-28T13:07:33;7.20;99.90
52397;DHT22;38322;53.108;6.308;2023-02-28T13:10:04;7.20;99.90
52397;DHT22;38322;53.108;6.308;2023-02-28T13:12:32;7.20;99.90
52397;DHT22;38322;53.108;6.308;2023-02-28T13:15:05;7.30;99.90
52397;DHT22;38322;53.108;6.308;2023-02-28T13:17:39;7.30;99.90
52397;DHT22;38322;53.108;6.308;2023-02-28T13:20:15;7.20;99.90
52397;DHT22;38322;53.108;6.308;2023-02-28T13:22:44;7.30;99.90
52397;DHT22;38322;53.108;6.308;2023-02-28T13:27:53;7.00;99.90
52397;DHT22;38322;53.108;6.308;2023-02-28T13:33:24;6.60;99.90
52397;DHT22;38322;53.108;6.308;2023-02-28T13:38:44;6.30;99.90
52397;DHT22;38322;53.108;6.308;2023-02-28T13:44:08;6.00;99.90
52397;DHT22;38322;53.108;6.308;2023-02-28T13:46:38;6.00;99.90
52397;DHT22;38322;53.108;6.308;2023-02-28T13:51:51;6.00;99.90
52397;DHT22;38322;53.108;6.308;2023-02-28T13:54:28;6.10;99.90
52397;DHT22;38322;53.108;6.308;2023-02-28T13:59:43;6.40;99.90
52397;DHT22;38322;53.108;6.308;2023-02-28T14:02:32;6.50;99.90
52397;DHT22;38322;53.108;6.308;2023-02-28T14:05:02;6.50;99.90
52397;DHT22;38322;53.108;6.308;2023-02-28T14:07:38;6.50;99.90
52397;DHT22;38322;53.108;6.308;2023-02-28T14:10:08;6.60;99.90
52397;DHT22;38322;53.108;6.308;2023-02-28T14:15:41;6.80;99.90
52397;DHT22;38322;53.108;6.308;2023-02-28T14:18:31;6.80;99.90
52397;DHT22;38322;53.108;6.308;2023-02-28T14:21:08;6.80;99.90
52397;DHT22;38322;53.108;6.308;2023-02-28T14:23:50;6.90;99.90
52397;DHT22;38322;53.108;6.308;2023-02-28T14:29:11;7.00;99.90
52397;DHT22;38322;53.108;6.308;2023-02-28T14:31:54;7.00;99.90
52397;DHT22;38322;53.108;6.308;2023-02-28T14:37:28;7.00;99.90
52397;DHT22;38322;53.108;6.308;2023-02-28T14:39:56;7.00;99.90
52397;DHT22;38322;53.108;6.308;2023-02-28T14:42:29;7.00;99.90
52397;DHT22;38322;53.108;6.308;2023-02-28T14:44:56;6.90;99.90
52397;DHT22;38322;53.108;6.308;2023-02-28T14:47:25;6.80;99.90
52397;DHT22;38322;53.108;6.308;2023-02-28T14:49:53;6.70;99.90
52397;DHT22;38322;53.108;6.308;2023-02-28T14:52:22;6.70;99.90
52397;DHT22;38322;53.108;6.308;2023-02-28T14:54:53;6.60;99.90
52397;DHT22;38322;53.108;6.308;2023-02-28T14:57:25;6.60;99.90
52397;DHT22;38322;53.108;6.308;2023-02-28T14:59:58;6.60;99.90
52397;DHT22;38322;53.108;6.308;2023-02-28T15:02:25;6.50;99.90
52397;DHT22;38322;53.108;6.308;2023-02-28T15:04:56;6.50;99.90
52397;DHT22;38322;53.108;6.308;2023-02-28T15:07:22;6.50;99.90
52397;DHT22;38322;53.108;6.308;2023-02-28T15:10:09;6.50;99.90
52397;DHT22;38322;53.108;6.308;2023-02-28T15:12:36;6.60;99.90
52397;DHT22;38322;53.108;6.308;2023-02-28T15:15:02;6.50;99.90
52397;DHT22;38322;53.108;6.308;2023-02-28T15:17:28;6.60;99.90
52397;DHT22;38322;53.108;6.308;2023-02-28T15:19:55;6.60;99.90
52397;DHT22;38322;53.108;6.308;2023-02-28T15:22:28;6.60;99.90
52397;DHT22;38322;53.108;6.308;2023-02-28T15:24:55;6.60;99.90
52397;DHT22;38322;53.108;6.308;2023-02-28T15:27:25;6.60;99.90
52397;DHT22;38322;53.108;6.308;2023-02-28T15:29:57;6.60;99.90
52397;DHT22;38322;53.108;6.308;2023-02-28T15:32:30;6.50;99.90
52397;DHT22;38322;53.108;6.308;2023-02-28T15:34:58;6.50;99.90
52397;DHT22;38322;53.108;6.308;2023-02-28T15:37:31;6.50;99.90
52397;DHT22;38322;53.108;6.308;2023-02-28T15:42:31;6.40;99.90
52397;DHT22;38322;53.108;6.308;2023-02-28T15:44:57;6.30;99.90
52397;DHT22;38322;53.108;6.308;2023-02-28T15:47:27;6.20;99.90
52397;DHT22;38322;53.108;6.308;2023-02-28T15:50:00;6.10;99.90
52397;DHT22;38322;53.108;6.308;2023-02-28T15:52:34;6.00;99.90
52397;DHT22;38322;53.108;6.308;2023-02-28T15:55:10;6.00;99.90
52397;DHT22;38322;53.108;6.308;2023-02-28T15:57:39;6.00;99.90
52397;DHT22;38322;53.108;6.308;2023-02-28T16:00:12;5.90;99.90
52397;DHT22;38322;53.108;6.308;2023-02-28T16:02:39;5.90;99.90
52397;DHT22;38322;53.108;6.308;2023-02-28T16:07:32;5.70;99.90
52397;DHT22;38322;53.108;6.308;2023-02-28T16:09:59;5.70;99.90
52397;DHT22;38322;53.108;6.308;2023-02-28T16:12:27;5.70;99.90
52397;DHT22;38322;53.108;6.308;2023-02-28T16:14:54;5.70;99.90
52397;DHT22;38322;53.108;6.308;2023-02-28T16:17:24;5.60;99.90
52397;DHT22;38322;53.108;6.308;2023-02-28T16:19:51;5.60;99.90
52397;DHT22;38322;53.108;6.308;2023-02-28T16:22:17;5.60;99.90
52397;DHT22;38322;53.108;6.308;2023-02-28T16:24:43;5.50;99.90
52397;DHT22;38322;53.108;6.308;2023-02-28T16:27:18;5.50;99.90
52397;DHT22;38322;53.108;6.308;2023-02-28T16:29:45;5.50;99.90
52397;DHT22;38322;53.108;6.308;2023-02-28T16:32:14;5.40;99.90
52397;DHT22;38322;53.108;6.308;2023-02-28T16:34:41;5.30;99.90
52397;DHT22;38322;53.108;6.308;2023-02-28T16:37:16;5.30;99.90
52397;DHT22;38322;53.108;6.308;2023-02-28T16:39:44;5.20;99.90
52397;DHT22;38322;53.108;6.308;2023-02-28T16:42:20;5.20;99.90
52397;DHT22;38322;53.108;6.308;2023-02-28T16:44:48;5.10;99.90
52397;DHT22;38322;53.108;6.308;2023-02-28T16:47:14;5.00;99.90
52397;DHT22;38322;53.108;6.308;2023-02-28T16:49:40;5.00;99.90
52397;DHT22;38322;53.108;6.308;2023-02-28T16:52:08;4.90;99.90
52397;DHT22;38322;53.108;6.308;2023-02-28T16:54:34;4.90;99.90
52397;DHT22;38322;53.108;6.308;2023-02-28T16:57:00;4.90;99.90
52397;DHT22;38322;53.108;6.308;2023-02-28T16:59:27;4.80;99.90
52397;DHT22;38322;53.108;6.308;2023-02-28T17:01:55;4.70;99.90
52397;DHT22;38322;53.108;6.308;2023-02-28T17:04:24;4.70;99.90
52397;DHT22;38322;53.108;6.308;2023-02-28T17:06:50;4.60;99.90
52397;DHT22;38322;53.108;6.308;2023-02-28T17:09:20;4.50;99.90
52397;DHT22;38322;53.108;6.308;2023-02-28T17:11:47;4.50;99.90
52397;DHT22;38322;53.108;6.308;2023-02-28T17:14:14;4.40;99.90
52397;DHT22;38322;53.108;6.308;2023-02-28T17:16:40;4.20;99.90
52397;DHT22;38322;53.108;6.308;2023-02-28T17:19:12;4.10;99.90
52397;DHT22;38322;53.108;6.308;2023-02-28T17:21:38;4.00;99.90
52397;DHT22;38322;53.108;6.308;2023-02-28T17:24:07;3.90;99.90
52397;DHT22;38322;53.108;6.308;2023-02-28T17:26:33;3.80;99.90
52397;DHT22;38322;53.108;6.308;2023-02-28T17:29:00;3.70;99.90
52397;DHT22;38322;53.108;6.308;2023-02-28T17:31:27;3.60;99.90
52397;DHT22;38322;53.108;6.308;2023-02-28T17:33:53;3.60;99.90
52397;DHT22;38322;53.108;6.308;2023-02-28T17:36:24;3.60;99.90
52397;DHT22;38322;53.108;6.308;2023-02-28T17:38:51;3.50;99.90
52397;DHT22;38322;53.108;6.308;2023-02-28T17:41:18;3.50;99.90
52397;DHT22;38322;53.108;6.308;2023-02-28T17:43:44;3.50;99.90
52397;DHT22;38322;53.108;6.308;2023-02-28T17:46:19;3.40;99.90
52397;DHT22;38322;53.108;6.308;2023-02-28T17:48:48;3.30;99.90
52397;DHT22;38322;53.108;6.308;2023-02-28T17:51:14;3.20;99.90
52397;DHT22;38322;53.108;6.308;2023-02-28T17:53:41;3.10;99.90
52397;DHT22;38322;53.108;6.308;2023-02-28T17:56:16;3.00;99.90
52397;DHT22;38322;53.108;6.308;2023-02-28T17:58:43;3.00;99.90
52397;DHT22;38322;53.108;6.308;2023-02-28T18:01:09;2.90;99.90
52397;DHT22;38322;53.108;6.308;2023-02-28T18:03:35;2.90;99.90
52397;DHT22;38322;53.108;6.308;2023-02-28T18:06:02;2.90;99.90
52397;DHT22;38322;53.108;6.308;2023-02-28T18:08:28;2.90;99.90
52397;DHT22;38322;53.108;6.308;2023-02-28T18:10:54;2.80;99.90
52397;DHT22;38322;53.108;6.308;2023-02-28T18:13:20;2.60;99.90
52397;DHT22;38322;53.108;6.308;2023-02-28T18:15:46;2.60;99.90
52397;DHT22;38322;53.108;6.308;2023-02-28T18:18:13;2.70;99.90
52397;DHT22;38322;53.108;6.308;2023-02-28T18:20:39;2.60;99.90
52397;DHT22;38322;53.108;6.308;2023-02-28T18:23:05;2.60;99.90
52397;DHT22;38322;53.108;6.308;2023-02-28T18:25:31;2.50;99.90
52397;DHT22;38322;53.108;6.308;2023-02-28T18:27:57;2.50;99.90
52397;DHT22;38322;53.108;6.308;2023-02-28T18:30:26;2.40;99.90
52397;DHT22;38322;53.108;6.308;2023-02-28T18:32:53;2.30;99.90
52397;DHT22;38322;53.108;6.308;2023-02-28T18:35:19;2.30;99.90
52397;DHT22;38322;53.108;6.308;2023-02-28T18:38:03;2.30;99.90
52397;DHT22;38322;53.108;6.308;2023-02-28T18:40:30;2.30;99.90
52397;DHT22;38322;53.108;6.308;2023-02-28T18:42:56;2.20;99.90
52397;DHT22;38322;53.108;6.308;2023-02-28T18:45:22;2.20;99.90
52397;DHT22;38322;53.108;6.308;2023-02-28T18:47:48;2.10;99.90
52397;DHT22;38322;53.108;6.308;2023-02-28T18:50:14;2.10;99.90
52397;DHT22;38322;53.108;6.308;2023-02-28T18:52:39;2.00;99.90
52397;DHT22;38322;53.108;6.308;2023-02-28T18:55:06;1.90;99.90
52397;DHT22;38322;53.108;6.308;2023-02-28T18:57:33;1.90;99.90
52397;DHT22;38322;53.108;6.308;2023-02-28T18:59:59;1.80;99.90
52397;DHT22;38322;53.108;6.308;2023-02-28T19:02:25;1.80;99.90
52397;DHT22;38322;53.108;6.308;2023-02-28T19:04:51;1.80;99.90
52397;DHT22;38322;53.108;6.308;2023-02-28T19:07:17;1.90;99.90
52397;DHT22;38322;53.108;6.308;2023-02-28T19:09:43;1.90;99.90
52397;DHT22;38322;53.108;6.308;2023-02-28T19:12:08;1.90;99.90
52397;DHT22;38322;53.108;6.308;2023-02-28T19:14:34;2.00;99.90
52397;DHT22;38322;53.108;6.308;2023-02-28T19:17:00;2.00;99.90
52397;DHT22;38322;53.108;6.308;2023-02-28T19:19:26;2.00;99.90
52397;DHT22;38322;53.108;6.308;2023-02-28T19:21:52;1.90;99.90
52397;DHT22;38322;53.108;6.308;2023-02-28T19:24:18;1.90;99.90
52397;DHT22;38322;53.108;6.308;2023-02-28T19:26:44;1.90;99.90
52397;DHT22;38322;53.108;6.308;2023-02-28T19:29:10;1.80;99.90
52397;DHT22;38322;53.108;6.308;2023-02-28T19:31:36;1.80;99.90
52397;DHT22;38322;53.108;6.308;2023-02-28T19:34:02;1.70;99.90
52397;DHT22;38322;53.108;6.308;2023-02-28T19:36:28;1.70;99.90
52397;DHT22;38322;53.108;6.308;2023-02-28T19:38:54;1.70;99.90
52397;DHT22;38322;53.108;6.308;2023-02-28T19:41:20;1.60;99.90
52397;DHT22;38322;53.108;6.308;2023-02-28T19:43:46;1.60;99.90
52397;DHT22;38322;53.108;6.308;2023-02-28T19:46:13;1.60;99.90
52397;DHT22;38322;53.108;6.308;2023-02-28T19:48:39;1.60;99.90
52397;DHT22;38322;53.108;6.308;2023-02-28T19:51:09;1.50;99.90
52397;DHT22;38322;53.108;6.308;2023-02-28T19:53:36;1.50;99.90
52397;DHT22;38322;53.108;6.308;2023-02-28T19:56:03;1.60;99.90
52397;DHT22;38322;53.108;6.308;2023-02-28T19:58:30;1.60;99.90
52397;DHT22;38322;53.108;6.308;2023-02-28T20:00:56;1.60;99.90
52397;DHT22;38322;53.108;6.308;2023-02-28T20:03:22;1.50;99.90
52397;DHT22;38322;53.108;6.308;2023-02-28T20:05:59;1.50;99.90
52397;DHT22;38322;53.108;6.308;2023-02-28T20:08:25;1.50;99.90
52397;DHT22;38322;53.108;6.308;2023-02-28T20:10:52;1.50;99.90
52397;DHT22;38322;53.108;6.308;2023-02-28T20:13:17;1.50;99.90
52397;DHT22;38322;53.108;6.308;2023-02-28T20:15:43;1.50;99.90
52397;DHT22;38322;53.108;6.308;2023-02-28T20:18:09;1.40;99.90
52397;DHT22;38322;53.108;6.308;2023-02-28T20:20:35;1.40;99.90
52397;DHT22;38322;53.108;6.308;2023-02-28T20:23:03;1.30;99.90
52397;DHT22;38322;53.108;6.308;2023-02-28T20:25:29;1.30;99.90
52397;DHT22;38322;53.108;6.308;2023-02-28T20:27:56;1.30;99.90
52397;DHT22;38322;53.108;6.308;2023-02-28T20:30:22;1.20;99.90
52397;DHT22;38322;53.108;6.308;2023-02-28T20:32:48;1.00;99.90
52397;DHT22;38322;53.108;6.308;2023-02-28T20:35:14;0.90;99.90
52397;DHT22;38322;53.108;6.308;2023-02-28T20:37:40;0.90;99.90
52397;DHT22;38322;53.108;6.308;2023-02-28T20:40:06;0.80;99.90
52397;DHT22;38322;53.108;6.308;2023-02-28T20:42:32;0.80;99.90
52397;DHT22;38322;53.108;6.308;2023-02-28T20:44:58;0.80;99.90
52397;DHT22;38322;53.108;6.308;2023-02-28T20:47:24;0.80;99.90
52397;DHT22;38322;53.108;6.308;2023-02-28T20:49:50;0.80;99.90
52397;DHT22;38322;53.108;6.308;2023-02-28T20:52:16;0.70;99.90
52397;DHT22;38322;53.108;6.308;2023-02-28T20:54:42;0.60;99.90
52397;DHT22;38322;53.108;6.308;2023-02-28T20:57:08;0.50;99.90
52397;DHT22;38322;53.108;6.308;2023-02-28T20:59:34;0.50;99.90
